WetterOnline ( https://www.wetteronline.de )

Wetter aktuell Aidenbach

Aktuelles Wetter: Fürstenzell (480m)

6-stündlich | Neueste Meldungen
Ortszeit Temperatur Wetter
Do, 18.07. 8:00 17.3° C bedeckt
Do, 18.07. 2:00 18.3° C bedeckt
Mi, 17.07. 20:00 20.3° C bedeckt
Mi, 17.07. 14:00 20.1° C bedeckt
Mi, 17.07. 8:00 17.5° C bedeckt
Mi, 17.07. 2:00 19.0° C leichter Regen
Di, 16.07. 20:00 20.8° C Regen
Di, 16.07. 14:00 22.3° C bedeckt
Ortszeit Temperatur Wetter
Do, 18.07. 9:00 18.6° C bedeckt
Do, 18.07. 8:30 17.8° C bedeckt
Do, 18.07. 8:20 17.8° C bedeckt
Do, 18.07. 8:10 17.6° C bedeckt
Do, 18.07. 8:00 17.3° C bedeckt
Do, 18.07. 7:50 17.3° C bedeckt
Do, 18.07. 7:30 17.1° C bedeckt
Do, 18.07. 7:00 16.3° C wolkig
Do, 18.07. 6:30 16.3° C bedeckt
Do, 18.07. 6:00 15.8° C leicht bewölkt
Ortszeit Relative Feuchte Sichtweite
Do, 18.07. 8:00 96% 21 km
Do, 18.07. 2:00 82% 45 km
Mi, 17.07. 20:00 77% 55 km
Mi, 17.07. 14:00 80% 35 km
Mi, 17.07. 8:00 96% 24 km
Mi, 17.07. 2:00 88% 27 km
Di, 16.07. 20:00 73% 10 km
Di, 16.07. 14:00 75% 55 km
Ortszeit Relative Feuchte Sichtweite
Do, 18.07. 9:00 90% 55 km
Do, 18.07. 8:30 94% 29 km
Do, 18.07. 8:20 94% -
Do, 18.07. 8:10 95% -
Do, 18.07. 8:00 96% 21 km
Do, 18.07. 7:50 96% -
Do, 18.07. 7:30 97% 21 km
Do, 18.07. 7:00 99% 12 km
Do, 18.07. 6:30 99% 16 km
Do, 18.07. 6:00 99% 21 km
Ortszeit Niederschlagsmenge Niederschlagsart
Do, 18.07. 8:00 0.0 l/m2 in 12 Std. -
Do, 18.07. 2:00 0.0 l/m2 in 6 Std. -
Mi, 17.07. 20:00 0.1 l/m2 in 12 Std. -
Mi, 17.07. 14:00 0.1 l/m2 in 6 Std. Regen
Mi, 17.07. 8:00 0.9 l/m2 in 12 Std. Regen
Mi, 17.07. 2:00 0.3 l/m2 in 6 Std. Regen
Di, 16.07. 20:00 1 l/m2 in 12 Std. Regen
Di, 16.07. 14:00 0.1 l/m2 in 6 Std. Regen
Ortszeit Niederschlagsmenge Niederschlagsart
Do, 18.07. 9:00 keine Meldung -
Do, 18.07. 8:30 0.0 l/m2 in 30 Min -
Do, 18.07. 8:20 keine Meldung -
Do, 18.07. 8:10 keine Meldung -
Do, 18.07. 8:00 0.0 l/m2 in 1 Std. -
Do, 18.07. 7:50 keine Meldung -
Do, 18.07. 7:30 0.0 l/m2 in 30 Min -
Do, 18.07. 7:00 0.0 l/m2 in 1 Std. -
Do, 18.07. 6:30 0.0 l/m2 in 30 Min -
Do, 18.07. 6:00 0.0 l/m2 in 1 Std. -
Ortszeit Stärke Spitze Richtung
km/h Bft. km/h Grad Sektor
Do, 18.07. 8:00 6 1 13 50° NO
Do, 18.07. 2:00 4 1 11 330° NW
Mi, 17.07. 20:00 4 1 14 270° W
Mi, 17.07. 14:00 9 2 15 360° N
Mi, 17.07. 8:00 4 1 14 160° S
Mi, 17.07. 2:00 6 1 26 250° W
Di, 16.07. 20:00 9 2 19 250° W
Di, 16.07. 14:00 6 1 33 20° N
Ortszeit Stärke Spitze Richtung
km/h Bft. km/h Grad Sektor
Do, 18.07. 9:00 9 2 13 50° NO
Do, 18.07. 8:30 7 2 9 40° NO
Do, 18.07. 8:20 7 2 - 40° NO
Do, 18.07. 8:10 6 1 - 40° NO
Do, 18.07. 8:00 6 1 9 50° NO
Do, 18.07. 7:50 6 1 - 50° NO
Do, 18.07. 7:30 4 1 7 70° O
Do, 18.07. 7:00 7 2 11 60° NO
Do, 18.07. 6:30 7 2 11 60° NO
Do, 18.07. 6:00 4 1 11 50° NO
Ortszeit Untergrenze Bedeckung Gattung
total tief tief mittel hoch
Do, 18.07. 8:00 1800 m 8/8 8/8 - - -
Do, 18.07. 2:00 1800 m 8/8 8/8 - - -
Mi, 17.07. 20:00 1500 m 8/8 8/8 - - -
Mi, 17.07. 14:00 300 m 8/8 8/8 - - -
Mi, 17.07. 8:00 1800 m 8/8 8/8 - - -
Mi, 17.07. 2:00 1500 m 7/8 7/8 - - -
Di, 16.07. 20:00 1110 m 8/8 7/8 - - -
Di, 16.07. 14:00 600 m 8/8 8/8 - - -
Ortszeit Bedeckungsgrad in Achtel und Wolkenuntergrenze
Do, 18.07. 9:00 8(1800m)
Do, 18.07. 8:30 8(1800m)
Do, 18.07. 8:20 8(1800m)
Do, 18.07. 8:10 8
Do, 18.07. 8:00 8(1800m)
Do, 18.07. 7:50 8(1800m)
Do, 18.07. 7:30 8(1800m)
Do, 18.07. 7:00 6(1800m)
Do, 18.07. 6:30 8(1800m)
Do, 18.07. 6:00 4(1800m)
Ortszeit Luftdruck NN (hPa) Tendenz (hPa in 3 Std.)
Do, 18.07. 8:00 1022 + 0,3
Do, 18.07. 2:00 1023 0,0
Mi, 17.07. 20:00 1021 + 0,2
Mi, 17.07. 14:00 1021 + 0,5
Mi, 17.07. 8:00 1020 + 1,0
Mi, 17.07. 2:00 1018 + 1,2
Di, 16.07. 20:00 1015 + 0,7
Di, 16.07. 14:00 1015 - 0,1
Ortszeit Luftdruck NN (hPa) Tendenz (hPa in 3 Std.)
Do, 18.07. 9:00 1022 + 0,1
Do, 18.07. 8:30 1022 + 0,3
Do, 18.07. 8:20 1022 keine Meldung
Do, 18.07. 8:10 1022 keine Meldung
Do, 18.07. 8:00 1022 + 0,3
Do, 18.07. 7:50 1022 keine Meldung
Do, 18.07. 7:30 1022 + 0,1
Do, 18.07. 7:00 1022 + 0,1
Do, 18.07. 6:30 1022 0,0
Do, 18.07. 6:00 1022 - 0,3
Ortszeit Schneehöhe (cm)
Do, 18.07. 8:00 0
Do, 18.07. 2:00 0
Mi, 17.07. 20:00 0
Mi, 17.07. 14:00 0
Mi, 17.07. 8:00 0
Mi, 17.07. 2:00 0
Di, 16.07. 20:00 0
Di, 16.07. 14:00 0
Ortszeit Schneehöhe (cm)
Do, 18.07. 9:00 -
Do, 18.07. 8:30 0
Do, 18.07. 8:20 0
Do, 18.07. 8:10 -
Do, 18.07. 8:00 0
Do, 18.07. 7:50 0
Do, 18.07. 7:30 0
Do, 18.07. 7:00 0
Do, 18.07. 6:30 0
Do, 18.07. 6:00 0
Link zu dieser Seite / Seite empfehlen

Das Wetter in ...